Hattiesburg Bobby L Chain Municipal Airport Hattiesburg US
ICAO: KHBG
IATA: HBG
Category: Medium
Scheduled Services: No

Elevation: 151 ft
TransAlt. 18000 ft.

Airport Communications:
ASOS:135.425
HOUSTON CNTR:126.8
CTAF/UNICOM:122.8

KHBG Zoom In..

Runways:

(A) RW 13 length 6094 ft width 150 ft
---- / hdg 132

(B) RW 31 length 6094 ft width 150 ft
---- / hdg 312

Location; KHBG
Day. 22 / Time. 03.53 Zulu
* Altimeter: 30.09
* Temperature: 13° c. 55.4°f.
* Wind from: 130° Speed 05 kn.
Dewpoint: 13° c.
Visibility: 10 Statute Miles.
Clouds: Few 9500 ft.

KHBG 220353Z AUTO 13005KT 10SM FEW095 13/13 A3009 RMK AO2 SLP189 T01330128


Wind From 130°
Speed 05 kn.

jpsM music video
CHECK IT OUT

jpsM - It Moves..

 
jpsmedia.com for Web Design  worldairports.se 2018   terms of use